Stations météo

réclame
Mon MeteoGroup
Zeebrugge, Belgique (6418): Température de l'air & dewpoint: 14.07.2018 22:00:00 - 20.07.2018 22:00:00 (CEST)Zeebrugge, Belgique (6418): Vitesse du vent & gusts: 14.07.2018 22:00:00 - 20.07.2018 22:00:00 (CEST)Zeebrugge, Belgique (6418): Direction du vent: 14.07.2018 22:00:00 - 20.07.2018 22:00:00 (CEST)Zeebrugge, Belgique (6418): reduced air pressure: 14.07.2018 22:00:00 - 20.07.2018 22:00:00 (CEST)Zeebrugge, Belgique (6418): Ensoleillement: 14.07.2018 22:00:00 - 20.07.2018 22:00:00 (CEST)Zeebrugge, Belgique (6418): Quantités de précipitations: 14.07.2018 22:00:00 - 20.07.2018 22:00:00 (CEST)
Date & Time tt [°C] td [°C] ff [km/h] ff [knt] fx [km/h] fx [knt] dd ppp [hPa] sd [min] rr [mm]
20.07.2018 22:00:00 19,7 13,4 14 8 20 11 NNE 1013,3 0 0,1
20.07.2018 21:00:00 20,0 13,8 13 7 16 8 NNE 1013,4 0 0,0
20.07.2018 20:00:00 20,1 13,9 11 6 17 9 NNE 1013,5 0 0,0
20.07.2018 19:00:00 20,2 14,8 13 7 17 9 N 1013,5 0 0,0
20.07.2018 18:00:00 20,3 15,0 13 7 19 10 N 1014,2 0 0,0
20.07.2018 17:00:00 20,6 15,3 17 9 20 11 N 1014,6 0 0,0
20.07.2018 16:00:00 21,0 15,3 16 8 18 10 N 1015,1 16 0,0
20.07.2018 15:00:00 21,4 15,5 15 8 17 9 N 1015,3 16 0,0
20.07.2018 14:00:00 21,0 14,7 11 6 18 10 N 1015,6 31 0,0
20.07.2018 13:00:00 20,8 15,2 14 7 18 10 NNE 1015,5 51 0,0
20.07.2018 12:00:00 20,7 14,5 14 7 - - NNE 1015,6 40 -
20.07.2018 11:00:00 20,7 13,9 - - - - - 1015,8 - -
20.07.2018 10:00:00 19,9 14,2 - - - - - 1015,9 - -
20.07.2018 09:00:00 - - - - - - - - - -
20.07.2018 08:00:00 - - - - - - - - - -
20.07.2018 07:00:00 - - - - - - - - - -
20.07.2018 06:00:00 - - - - - - - - - -
20.07.2018 05:00:00 - - - - - - - - - -
20.07.2018 04:00:00 - - - - - - - - - -
20.07.2018 03:00:00 - - - - - - - - - -
20.07.2018 02:00:00 - - - - - - - - - -
20.07.2018 01:00:00 - - - - - - - - - -
20.07.2018 00:00:00 - - - - - - - - - -
19.07.2018 23:00:00 - - - - - - - - - -
19.07.2018 22:00:00 - - - - - - - - - -
19.07.2018 21:00:00 - - - - - - - - - -
19.07.2018 20:00:00 - - - - - - - - - -
19.07.2018 19:00:00 - - - - - - - - - -
19.07.2018 18:00:00 - - - - - - - - - -
19.07.2018 17:00:00 - - - - - - - - - -
19.07.2018 16:00:00 - - - - - - - - - -
19.07.2018 15:00:00 - - - - - - - - - -
19.07.2018 14:00:00 20,5 14,4 18 10 23 12 N 1019,9 46 0,0
19.07.2018 13:00:00 20,3 15,5 17 9 23 12 N 1020,0 60 0,0
19.07.2018 12:00:00 20,2 16,0 15 8 20 11 NNE 1020,0 60 0,0
19.07.2018 11:00:00 20,3 15,3 14 8 19 11 NNE 1019,9 60 0,0
19.07.2018 10:00:00 20,3 15,4 11 6 16 9 NNE 1019,9 60 0,0
19.07.2018 09:00:00 19,7 15,4 10 5 13 7 NNE 1019,8 60 0,0
19.07.2018 08:00:00 19,5 15,4 11 6 14 8 NNE 1019,9 60 0,0
19.07.2018 07:00:00 19,1 15,1 10 5 12 7 NNE 1019,5 9 0,0
19.07.2018 06:00:00 18,8 14,6 10 5 14 8 NNE 1019,5 0 0,0
19.07.2018 05:00:00 18,9 14,0 12 7 16 8 NNE 1019,7 0 0,0
19.07.2018 04:00:00 18,8 14,7 12 6 17 9 NNE 1019,8 0 0,0
19.07.2018 03:00:00 18,8 14,9 15 8 17 9 N 1020,0 0 0,0
19.07.2018 02:00:00 18,8 14,6 11 6 17 9 NE 1019,9 0 0,0
19.07.2018 01:00:00 19,1 14,5 13 7 18 10 NNE 1019,9 0 0,0
19.07.2018 00:00:00 19,3 14,7 16 8 19 11 N 1019,8 0 0,0
18.07.2018 23:00:00 19,4 14,7 14 8 16 9 NNE 1019,6 0 0,0
18.07.2018 22:00:00 19,5 14,8 14 8 18 10 NNE 1019,4 16 0,0
18.07.2018 21:00:00 19,9 14,9 14 8 19 10 N 1019,3 60 0,0
18.07.2018 20:00:00 20,1 15,1 14 8 20 11 NNE 1019,4 60 0,0
18.07.2018 19:00:00 20,1 15,2 15 8 18 10 NNE 1019,4 60 0,0
18.07.2018 18:00:00 20,5 15,4 16 9 21 11 N 1019,3 60 0,0
18.07.2018 17:00:00 20,8 15,4 18 10 21 12 NNW 1019,5 60 0,0
18.07.2018 16:00:00 22,0 15,6 16 8 20 11 NNW 1019,5 60 0,0
18.07.2018 15:00:00 22,1 15,2 18 10 23 12 NW 1019,4 60 0,0
18.07.2018 14:00:00 21,9 15,2 18 10 23 12 NW 1019,6 60 0,0
18.07.2018 13:00:00 21,1 15,4 19 10 28 15 W 1019,6 60 0,0
18.07.2018 12:00:00 20,5 15,0 17 9 24 13 W 1019,5 60 0,0
18.07.2018 11:00:00 20,0 16,0 17 9 24 13 WSW 1019,5 59 0,0
18.07.2018 10:00:00 18,8 16,2 13 7 24 13 SW 1019,5 60 0,0
18.07.2018 09:00:00 16,7 14,4 12 7 20 11 SSW 1019,1 60 0,0
18.07.2018 08:00:00 15,4 13,1 14 8 22 12 SSW 1018,8 60 0,0
18.07.2018 07:00:00 15,0 12,4 17 9 23 12 SSW 1018,6 32 0,0
18.07.2018 06:00:00 15,2 12,3 16 9 24 13 SSW 1018,3 0 0,0
18.07.2018 05:00:00 15,3 11,6 17 9 24 13 SSW 1018,3 0 0,0
18.07.2018 04:00:00 15,7 10,9 17 9 26 14 SSW 1018,4 0 0,0
18.07.2018 03:00:00 16,3 11,0 18 10 25 14 SSW 1018,5 0 0,0
18.07.2018 02:00:00 16,5 10,8 18 10 29 15 SSW 1018,5 0 0,0
18.07.2018 01:00:00 17,3 10,6 18 10 23 12 SSW 1018,5 0 0,0
18.07.2018 00:00:00 18,6 10,9 15 8 32 18 SSW 1018,4 0 0,0
17.07.2018 23:00:00 19,8 10,7 22 12 37 20 WSW 1018,2 0 0,0
17.07.2018 22:00:00 19,8 11,8 21 12 37 20 WSW 1017,8 19 0,0
17.07.2018 21:00:00 20,4 11,2 24 13 37 20 W 1017,7 60 0,0
17.07.2018 20:00:00 20,7 12,8 23 13 36 20 W 1017,4 60 0,0
17.07.2018 19:00:00 21,2 12,9 21 11 34 18 W 1017,5 60 0,0
17.07.2018 18:00:00 21,2 13,3 22 12 35 19 W 1017,7 60 0,0
17.07.2018 17:00:00 21,3 12,0 23 12 35 19 W 1017,7 60 0,0
17.07.2018 16:00:00 21,1 12,7 24 13 39 21 W 1017,7 60 0,0
17.07.2018 15:00:00 20,7 12,8 28 15 39 21 W 1017,5 60 0,0
17.07.2018 14:00:00 20,5 13,1 22 12 40 22 W 1017,4 60 0,0
17.07.2018 13:00:00 20,2 13,3 26 14 43 23 W 1017,0 60 0,0
17.07.2018 12:00:00 20,1 13,4 29 16 46 25 W 1016,4 60 0,0
17.07.2018 11:00:00 20,0 14,3 27 14 40 22 WSW 1015,9 60 0,0
17.07.2018 10:00:00 20,3 14,5 27 15 40 22 WSW 1015,2 60 0,0
17.07.2018 09:00:00 20,0 16,8 24 13 37 20 WSW 1015,0 59 0,0
17.07.2018 08:00:00 18,9 16,6 22 12 32 17 SW 1014,6 53 0,0
17.07.2018 07:00:00 16,3 13,2 14 8 24 13 SW 1014,3 9 0,0
17.07.2018 06:00:00 16,5 11,7 16 9 29 16 SW 1014,0 0 0,0
17.07.2018 05:00:00 17,2 11,6 21 11 30 16 SW 1013,9 0 0,0
17.07.2018 04:00:00 17,9 11,0 21 11 28 15 SSW 1013,7 0 0,0
17.07.2018 03:00:00 19,0 10,8 17 9 27 15 SSW 1013,9 0 0,0
17.07.2018 02:00:00 20,2 11,1 18 10 23 12 SSW 1014,1 0 0,0
17.07.2018 01:00:00 20,5 13,2 14 7 18 10 SSW 1014,2 0 0,0
17.07.2018 00:00:00 21,5 14,5 9 5 16 9 SW 1014,0 0 0,0
16.07.2018 23:00:00 21,5 14,5 12 7 19 10 WSW 1014,0 0 0,0
16.07.2018 22:00:00 21,4 15,4 11 6 21 12 SW 1013,7 0 0,0
16.07.2018 21:00:00 23,4 12,5 12 7 18 10 W 1013,4 33 0,0
16.07.2018 20:00:00 23,6 16,5 11 6 13 7 NW 1012,7 45 0,0
16.07.2018 19:00:00 21,9 16,4 7 4 17 9 N 1012,5 41 0,0
16.07.2018 18:00:00 22,2 16,7 14 7 20 11 NNW 1012,9 58 0,0
16.07.2018 17:00:00 23,6 15,7 18 10 21 11 NW 1012,8 60 0,0
16.07.2018 16:00:00 23,2 15,8 13 7 18 10 N 1013,0 60 0,0
16.07.2018 15:00:00 23,2 15,7 14 7 16 9 NNE 1013,3 60 0,0
16.07.2018 14:00:00 23,1 17,0 11 6 14 8 N 1013,5 60 0,0
16.07.2018 13:00:00 23,0 17,4 10 6 21 12 NNW 1013,6 60 0,0
16.07.2018 12:00:00 23,9 17,1 8 4 10 5 NNE 1013,8 60 0,0
16.07.2018 11:00:00 23,7 17,2 4 2 8 4 ENE 1013,6 60 0,0
16.07.2018 10:00:00 22,6 16,8 6 4 10 5 NE 1013,9 52 0,0
16.07.2018 09:00:00 22,0 17,2 6 3 7 4 NNE 1014,0 37 0,0
16.07.2018 08:00:00 21,4 16,9 4 2 8 5 NNE 1014,1 38 0,0
16.07.2018 07:00:00 20,4 17,1 4 2 7 4 WSW 1014,2 33 0,0
16.07.2018 06:00:00 19,9 16,2 4 2 5 3 NE 1014,1 0 0,0
16.07.2018 05:00:00 20,1 15,3 4 2 7 4 NNE 1014,1 0 0,0
16.07.2018 04:00:00 20,2 15,0 5 3 7 4 NE 1014,4 0 0,0
16.07.2018 03:00:00 20,7 15,0 5 3 7 4 E 1014,6 0 0,0
16.07.2018 02:00:00 21,3 14,7 7 4 12 7 E 1014,8 0 0,0
16.07.2018 01:00:00 21,4 14,9 8 5 12 6 E 1015,3 0 0,0
16.07.2018 00:00:00 21,4 15,7 10 5 15 8 ENE 1015,2 0 0,0
15.07.2018 23:00:00 21,8 15,3 11 6 16 8 ENE 1015,3 0 0,0
15.07.2018 22:00:00 22,2 15,2 9 5 18 10 ENE 1015,3 27 0,0
15.07.2018 21:00:00 22,0 15,4 13 7 25 13 NE 1015,1 50 0,0
15.07.2018 20:00:00 21,5 15,5 22 12 25 14 NNE 1015,0 60 0,0
15.07.2018 19:00:00 21,6 15,4 19 10 24 13 NNE 1015,3 60 0,0
15.07.2018 18:00:00 22,0 15,2 19 10 23 13 NNE 1015,5 60 0,0
15.07.2018 17:00:00 22,5 14,6 19 10 24 13 NNE 1016,0 60 0,0
15.07.2018 16:00:00 22,2 15,5 18 10 22 12 N 1016,3 60 0,0
15.07.2018 15:00:00 22,4 15,7 17 9 20 11 N 1016,7 60 0,0
15.07.2018 14:00:00 22,1 16,4 14 8 20 11 NNE 1017,0 60 0,0
15.07.2018 13:00:00 22,2 16,3 16 9 18 10 NNE 1017,5 60 0,0
15.07.2018 12:00:00 22,2 16,2 14 7 16 8 NNE 1017,7 60 0,0
15.07.2018 11:00:00 23,0 16,1 8 5 10 6 NNE 1017,9 60 0,0
15.07.2018 10:00:00 21,1 14,7 7 4 12 7 SE 1017,7 60 0,0
15.07.2018 09:00:00 19,4 14,5 11 6 16 9 ESE 1017,7 60 0,0
15.07.2018 08:00:00 18,3 14,3 7 4 18 10 SE 1017,9 60 0,0
15.07.2018 07:00:00 17,8 14,8 14 8 18 10 E 1017,5 43 0,0
15.07.2018 06:00:00 17,6 14,5 15 8 18 10 E 1017,7 0 0,0
15.07.2018 05:00:00 17,8 14,2 12 6 19 10 E 1018,0 0 0,0
15.07.2018 04:00:00 18,2 14,2 16 9 18 10 E 1018,2 0 0,0
15.07.2018 03:00:00 18,6 14,3 15 8 20 11 E 1018,5 0 0,0
15.07.2018 02:00:00 19,4 15,8 18 10 22 12 E 1018,6 0 0,0
15.07.2018 01:00:00 19,4 16,0 13 7 18 10 ENE 1018,8 0 0,1
15.07.2018 00:00:00 19,2 15,5 13 7 21 11 ENE 1019,0 0 0,0
14.07.2018 23:00:00 19,4 15,6 15 8 24 13 NE 1019,4 0 0,0
14.07.2018 22:00:00 19,2 15,4 21 12 27 14 NE 1018,9 50 0,0

tt = Température de l'air
td = dewpoint
ff = Vitesse du vent
fx = gusts
dd = Direction du vent
ppp = reduced air pressure
sd = Ensoleillement
rr = Quantités de précipitations

stations d'obs. à proximité